Weather at Barkley Regional Airport

Public forecast

Using degrees Fahrenheit for public forecast. Weather courtesy of forecast.io.

Current aviation weather report (METAR) for Barkley Regional Airport

Retrieved 2021/12/01 11:53 UTC (57 minutes ago):

KPAH 011153Z 00000KT 10SM CLR 09/04 A3000 RMK AO2 SLP159 T00940039 10094 20067 58020

Aviation forecast (TAF) for Barkley Regional Airport

Retrieved 2021/12/01 12:48 UTC (2 minutes ago):

TAF KPAH 011147Z 0112/0212 16005KT P6SM BKN200 FM011400 19006KT P6SM BKN180 FM011700 23009G16KT P6SM BKN100 FM020000 24004KT P6SM FEW250